createdAt,value
2022-10-19T00:15:59.512Z,13.00
2022-10-19T00:19:13.087Z,12.90
2022-10-19T00:23:02.925Z,12.90
2022-10-19T00:26:41.912Z,12.90
2022-10-19T00:30:16.077Z,12.90
2022-10-19T00:32:57.540Z,12.80
2022-10-19T00:36:12.893Z,12.80
2022-10-19T00:42:42.180Z,12.80
2022-10-19T00:45:17.295Z,12.80
2022-10-19T00:47:49.081Z,12.80
2022-10-19T00:50:22.174Z,12.80
2022-10-19T00:52:57.275Z,12.80
2022-10-19T00:55:27.504Z,12.80
2022-10-19T00:57:55.876Z,12.80
2022-10-19T01:00:31.605Z,12.80
2022-10-19T01:03:38.821Z,12.80
2022-10-19T01:06:17.257Z,12.80
2022-10-19T01:08:46.234Z,12.80
2022-10-19T01:11:33.780Z,12.70
2022-10-19T01:14:41.916Z,12.80
2022-10-19T01:18:17.585Z,12.70
2022-10-19T01:21:56.735Z,12.60
2022-10-19T01:24:51.960Z,12.60
2022-10-19T01:27:54.548Z,12.60
2022-10-19T01:30:41.260Z,12.60
2022-10-19T01:33:26.789Z,12.60
2022-10-19T01:36:05.451Z,12.60
2022-10-19T01:38:38.642Z,12.50
2022-10-19T01:41:16.011Z,12.60
2022-10-19T01:43:52.051Z,12.50
2022-10-19T01:46:29.468Z,12.50
2022-10-19T01:49:03.910Z,12.50
2022-10-19T01:51:35.191Z,12.50
2022-10-19T01:54:08.343Z,12.40
2022-10-19T01:56:38.715Z,12.40
2022-10-19T01:59:10.349Z,12.40
2022-10-19T02:01:43.310Z,12.30
2022-10-19T02:04:13.253Z,12.30
2022-10-19T02:06:41.977Z,12.30
2022-10-19T02:09:10.224Z,12.30
2022-10-19T02:12:20.372Z,12.30
2022-10-19T02:20:06.429Z,12.20
2022-10-19T02:39:10.185Z,11.90
2022-10-19T03:07:23.251Z,11.60
2022-10-19T03:09:51.681Z,11.50
2022-10-19T03:12:19.970Z,11.50
2022-10-19T03:14:48.350Z,11.50
2022-10-19T03:17:16.952Z,11.50
2022-10-19T03:19:45.403Z,11.50
2022-10-19T03:22:14.909Z,11.50
2022-10-19T03:24:44.549Z,11.50
2022-10-19T03:27:12.758Z,11.40
2022-10-19T03:29:41.267Z,11.40
2022-10-19T03:32:10.223Z,11.40
2022-10-19T03:34:38.607Z,11.40
2022-10-19T03:37:13.749Z,11.40
2022-10-19T03:39:44.541Z,11.30
2022-10-19T03:42:25.663Z,11.30
2022-10-19T03:45:07.705Z,11.30
2022-10-19T03:51:43.291Z,11.30
2022-10-19T03:54:27.272Z,11.20
2022-10-19T03:57:26.827Z,11.10
2022-10-19T03:59:54.848Z,11.10
2022-10-19T04:02:22.967Z,11.10
2022-10-19T04:04:51.068Z,11.00
2022-10-19T04:07:19.299Z,11.00
2022-10-19T04:09:47.438Z,11.00
2022-10-19T04:12:15.588Z,10.90
2022-10-19T04:14:56.743Z,10.90
2022-10-19T04:17:26.446Z,10.80
2022-10-19T04:19:54.492Z,10.80
2022-10-19T04:22:22.582Z,10.70
2022-10-19T04:24:51.826Z,10.70
2022-10-19T04:27:20.156Z,10.60
2022-10-19T04:29:49.563Z,10.60
2022-10-19T04:32:17.734Z,10.50
2022-10-19T04:34:45.849Z,10.40
2022-10-19T04:37:14.021Z,10.40
2022-10-19T04:39:43.447Z,10.30
2022-10-19T04:42:11.632Z,10.30
2022-10-19T04:44:39.887Z,10.30
2022-10-19T04:47:09.458Z,10.30
2022-10-19T04:49:37.608Z,10.20
2022-10-19T04:52:05.826Z,10.20
2022-10-19T04:54:33.835Z,10.20
2022-10-19T04:57:01.993Z,10.20
2022-10-19T04:59:30.062Z,10.20
2022-10-19T05:01:58.174Z,10.30
2022-10-19T05:04:27.698Z,10.30
2022-10-19T05:06:56.062Z,10.30
2022-10-19T05:09:24.354Z,10.40
2022-10-19T05:11:52.434Z,10.40
2022-10-19T05:14:20.591Z,10.40
2022-10-19T05:16:48.697Z,10.40
2022-10-19T05:19:16.886Z,10.50
2022-10-19T05:21:46.352Z,10.50
2022-10-19T05:24:14.519Z,10.50
2022-10-19T05:26:42.614Z,10.50
2022-10-19T05:29:13.126Z,10.60
2022-10-19T05:31:41.674Z,10.60
2022-10-19T05:34:10.927Z,10.60
2022-10-19T05:36:41.178Z,10.60
2022-10-19T05:39:14.350Z,10.60
2022-10-19T05:41:44.761Z,10.60
2022-10-19T05:44:17.196Z,10.60
2022-10-19T05:46:45.540Z,10.60
2022-10-19T05:49:16.812Z,10.60
2022-10-19T05:51:47.049Z,10.60
2022-10-19T05:54:16.908Z,10.60
2022-10-19T05:56:45.095Z,10.60
2022-10-19T05:59:16.501Z,10.60
2022-10-19T06:01:46.926Z,10.60
2022-10-19T06:06:44.348Z,10.70
2022-10-19T06:09:12.982Z,10.70
2022-10-19T06:11:44.451Z,10.70
2022-10-19T06:14:20.174Z,10.70
2022-10-19T06:16:50.354Z,10.70
2022-10-19T06:19:21.351Z,10.60
2022-10-19T06:21:49.700Z,10.60
2022-10-19T06:24:18.024Z,10.70
2022-10-19T06:26:49.844Z,10.70
2022-10-19T06:29:17.956Z,10.70
2022-10-19T06:31:46.690Z,10.70
2022-10-19T06:34:14.769Z,10.70
2022-10-19T06:36:42.984Z,10.70
2022-10-19T06:39:11.184Z,10.70
2022-10-19T06:41:39.378Z,10.60
2022-10-19T06:44:27.841Z,10.60
2022-10-19T06:46:56.019Z,10.60
2022-10-19T06:49:24.162Z,10.60
2022-10-19T06:51:52.301Z,10.60
2022-10-19T06:54:20.554Z,10.60
2022-10-19T06:59:17.911Z,10.60
2022-10-19T07:01:47.364Z,10.60
2022-10-19T07:04:15.516Z,10.70
2022-10-19T07:06:43.647Z,10.70
2022-10-19T07:09:11.832Z,10.70
2022-10-19T07:11:45.516Z,10.70
2022-10-19T07:14:14.411Z,10.70
2022-10-19T07:16:42.547Z,10.80
2022-10-19T07:19:13.449Z,10.80
2022-10-19T07:21:42.952Z,10.80
2022-10-19T07:24:11.398Z,10.90
2022-10-19T07:26:39.506Z,10.90
2022-10-19T07:29:07.642Z,11.00
2022-10-19T07:31:36.034Z,10.90
2022-10-19T07:34:06.156Z,11.00
2022-10-19T07:36:37.024Z,11.00
2022-10-19T07:39:06.549Z,11.10
2022-10-19T07:41:37.715Z,11.10
2022-10-19T07:44:06.280Z,11.10
2022-10-19T07:46:36.961Z,11.20
2022-10-19T07:49:10.071Z,11.30
2022-10-19T07:51:41.232Z,11.30
2022-10-19T07:54:09.619Z,11.40
2022-10-19T07:56:38.184Z,11.50
2022-10-19T07:59:06.557Z,11.60
2022-10-19T08:01:37.046Z,11.60
2022-10-19T08:04:55.415Z,11.80
2022-10-19T08:06:56.919Z,11.90
2022-10-19T08:09:52.316Z,12.10
2022-10-19T08:12:19.929Z,12.20
2022-10-19T08:14:48.614Z,12.60
2022-10-19T08:17:18.668Z,12.90
2022-10-19T08:19:48.517Z,13.40
2022-10-19T08:22:17.950Z,13.90
2022-10-19T08:24:46.167Z,14.20
2022-10-19T08:27:17.115Z,14.30
2022-10-19T08:29:45.393Z,14.30
2022-10-19T08:32:13.831Z,14.20
2022-10-19T08:34:42.065Z,14.10
2022-10-19T08:37:20.152Z,14.00
2022-10-19T08:40:00.053Z,13.90
2022-10-19T08:42:40.981Z,13.60
2022-10-19T08:45:33.611Z,13.50
2022-10-19T08:48:17.154Z,13.40
2022-10-19T08:50:46.893Z,13.40
2022-10-19T08:53:17.581Z,13.40
2022-10-19T08:56:04.448Z,13.50
2022-10-19T08:58:50.575Z,13.60
2022-10-19T09:01:33.808Z,13.70
2022-10-19T09:04:09.247Z,13.80
2022-10-19T09:06:48.535Z,14.00
2022-10-19T09:09:19.637Z,14.20
2022-10-19T09:11:52.219Z,14.50
2022-10-19T09:14:26.791Z,14.70
2022-10-19T09:16:57.452Z,14.70
2022-10-19T09:19:30.800Z,14.60
2022-10-19T09:22:02.487Z,14.50
2022-10-19T09:24:36.066Z,14.40
2022-10-19T09:27:08.645Z,14.30
2022-10-19T09:29:41.311Z,14.20
2022-10-19T09:32:15.837Z,14.10
2022-10-19T09:34:46.284Z,14.00
2022-10-19T09:37:20.176Z,14.10
2022-10-19T09:39:54.132Z,14.00
2022-10-19T09:42:29.160Z,14.00
2022-10-19T09:44:59.457Z,14.00
2022-10-19T09:47:38.798Z,13.90
2022-10-19T09:50:15.260Z,13.70
2022-10-19T09:52:44.377Z,13.60
2022-10-19T09:55:24.021Z,13.60
2022-10-19T09:58:02.993Z,13.50
2022-10-19T10:00:37.619Z,13.50
2022-10-19T10:03:07.564Z,13.50
2022-10-19T10:05:38.525Z,13.70
2022-10-19T10:08:14.393Z,14.00
2022-10-19T10:10:46.045Z,14.20
2022-10-19T10:13:18.994Z,14.30
2022-10-19T10:15:52.103Z,14.20
2022-10-19T10:18:20.622Z,14.20
2022-10-19T10:21:01.697Z,14.10
2022-10-19T10:23:36.211Z,14.00
2022-10-19T10:26:06.823Z,13.90
2022-10-19T10:28:48.153Z,13.80
2022-10-19T10:31:20.429Z,13.70
2022-10-19T10:33:55.563Z,13.60
2022-10-19T10:36:25.859Z,13.50
2022-10-19T10:38:58.638Z,13.60
2022-10-19T10:41:29.764Z,14.00
2022-10-19T10:44:04.843Z,14.30
2022-10-19T10:46:37.931Z,14.40
2022-10-19T10:49:08.255Z,14.30
2022-10-19T10:51:41.480Z,14.40
2022-10-19T10:54:20.997Z,14.40
2022-10-19T10:57:15.679Z,14.50
2022-10-19T10:59:56.209Z,14.50
2022-10-19T11:02:46.891Z,14.60
2022-10-19T11:05:21.513Z,14.60
2022-10-19T11:07:53.242Z,14.60
2022-10-19T11:10:29.287Z,14.70
2022-10-19T11:13:05.421Z,14.70
2022-10-19T11:15:40.351Z,14.70
2022-10-19T11:18:18.851Z,14.60
2022-10-19T11:20:56.215Z,14.60
2022-10-19T11:23:38.216Z,14.60
2022-10-19T11:26:21.157Z,14.50
2022-10-19T11:29:01.930Z,14.50
2022-10-19T11:31:39.660Z,14.50
2022-10-19T11:34:16.097Z,14.60
2022-10-19T11:36:52.410Z,14.50
2022-10-19T11:39:39.865Z,14.60
2022-10-19T11:42:17.318Z,14.50
2022-10-19T11:44:58.055Z,14.50
2022-10-19T11:47:51.046Z,14.40
2022-10-19T11:50:32.088Z,14.40
2022-10-19T11:53:08.955Z,14.40
2022-10-19T11:55:42.162Z,14.40
2022-10-19T11:58:25.421Z,14.40
2022-10-19T12:01:01.226Z,14.40
2022-10-19T12:03:52.098Z,14.40
2022-10-19T12:06:26.763Z,14.30
2022-10-19T12:09:09.889Z,14.30
2022-10-19T12:11:50.890Z,14.20
2022-10-19T12:14:25.549Z,14.20
2022-10-19T12:16:57.309Z,14.10
2022-10-19T12:19:29.917Z,14.20
2022-10-19T12:22:02.686Z,14.10
2022-10-19T12:24:33.511Z,14.10
2022-10-19T12:27:02.902Z,14.20
2022-10-19T12:29:34.967Z,14.10
2022-10-19T12:32:05.925Z,14.10
2022-10-19T12:34:47.494Z,14.30
2022-10-19T12:37:23.891Z,14.30
2022-10-19T12:39:58.986Z,14.30
2022-10-19T12:42:32.038Z,14.30
2022-10-19T12:45:18.405Z,14.30
2022-10-19T12:48:24.579Z,14.30
2022-10-19T12:51:13.510Z,13.70
2022-10-19T12:53:44.613Z,13.50
2022-10-19T12:56:25.191Z,13.50
2022-10-19T12:58:57.708Z,13.30
2022-10-19T13:01:29.184Z,13.30
2022-10-19T13:04:13.783Z,13.40
2022-10-19T13:06:45.699Z,13.40
2022-10-19T13:09:25.755Z,13.40
2022-10-19T13:12:28.968Z,13.40
2022-10-19T13:14:59.012Z,13.30
2022-10-19T13:17:43.743Z,13.20
2022-10-19T13:20:49.087Z,13.20
2022-10-19T13:23:39.689Z,13.20
2022-10-19T13:26:33.924Z,13.20
2022-10-19T13:29:02.404Z,13.30
2022-10-19T13:31:33.035Z,13.20
2022-10-19T13:34:01.262Z,13.20
2022-10-19T13:36:29.342Z,13.10
2022-10-19T13:39:08.594Z,13.00
2022-10-19T13:41:56.320Z,12.90
2022-10-19T13:44:27.872Z,12.80
2022-10-19T13:47:18.549Z,12.70
2022-10-19T13:50:11.536Z,12.70
2022-10-19T13:52:51.168Z,12.70
2022-10-19T13:55:35.419Z,12.80
2022-10-19T13:58:24.732Z,12.80
2022-10-19T14:01:06.706Z,12.90
2022-10-19T14:03:51.164Z,12.90
2022-10-19T14:06:28.510Z,12.90
2022-10-19T14:09:16.719Z,13.00
2022-10-19T14:11:48.660Z,12.90
2022-10-19T14:14:19.443Z,13.00
2022-10-19T14:16:50.892Z,13.00
2022-10-19T14:19:28.286Z,13.00
2022-10-19T14:21:58.115Z,13.00
2022-10-19T14:24:31.182Z,12.90
2022-10-19T14:27:03.152Z,12.90
2022-10-19T14:29:34.906Z,12.90
2022-10-19T14:32:04.507Z,12.90
2022-10-19T14:34:32.626Z,12.90
2022-10-19T14:37:00.731Z,12.90
2022-10-19T14:39:34.172Z,12.80
2022-10-19T14:42:06.953Z,12.70
2022-10-19T14:44:40.924Z,12.50
2022-10-19T14:47:20.021Z,12.40
2022-10-19T14:49:48.574Z,12.40
2022-10-19T14:52:24.088Z,12.40
2022-10-19T14:54:57.464Z,12.40
2022-10-19T14:57:30.743Z,12.30
2022-10-19T15:00:01.765Z,12.10
2022-10-19T15:02:33.934Z,12.10
2022-10-19T15:05:05.558Z,11.80
2022-10-19T15:07:38.696Z,11.80
2022-10-19T15:10:09.565Z,11.50
2022-10-19T15:12:41.415Z,11.40
2022-10-19T15:15:12.486Z,11.50
2022-10-19T15:17:52.221Z,11.20
2022-10-19T15:20:27.289Z,11.20
2022-10-19T15:22:56.409Z,11.30
2022-10-19T15:25:32.798Z,11.30
2022-10-19T15:28:34.978Z,11.20
2022-10-19T15:31:08.460Z,11.10
2022-10-19T15:33:40.263Z,11.10
2022-10-19T15:36:16.954Z,11.10
2022-10-19T15:38:46.195Z,11.10
2022-10-19T15:41:19.799Z,11.00
2022-10-19T15:43:51.395Z,11.00
2022-10-19T15:46:28.373Z,10.90
2022-10-19T15:48:57.522Z,10.90
2022-10-19T15:51:37.840Z,10.80
2022-10-19T15:54:07.409Z,10.70
2022-10-19T15:56:37.935Z,10.60
2022-10-19T15:59:12.038Z,10.50
2022-10-19T16:01:40.603Z,10.40
2022-10-19T16:04:08.733Z,10.30
2022-10-19T16:06:39.593Z,10.20
2022-10-19T16:09:08.996Z,10.10
2022-10-19T16:11:37.170Z,10.00
2022-10-19T16:14:05.301Z,9.90
2022-10-19T16:16:36.189Z,9.70
2022-10-19T16:19:04.476Z,9.60
2022-10-19T16:21:35.197Z,9.50
2022-10-19T16:24:03.327Z,9.40
2022-10-19T16:26:32.961Z,9.30
2022-10-19T16:29:02.664Z,9.10
2022-10-19T16:31:31.578Z,9.00
2022-10-19T16:34:01.066Z,8.90
2022-10-19T16:36:29.244Z,8.80
2022-10-19T16:39:01.103Z,8.70
2022-10-19T16:41:29.225Z,8.60
2022-10-19T16:43:58.165Z,8.50
2022-10-19T16:46:29.684Z,8.40
2022-10-19T16:48:57.949Z,8.30
2022-10-19T16:51:30.629Z,8.20
2022-10-19T16:53:59.204Z,8.10
2022-10-19T16:56:29.262Z,8.00
2022-10-19T16:58:59.823Z,7.90
2022-10-19T17:01:29.101Z,7.80
2022-10-19T17:03:57.932Z,7.70
2022-10-19T17:06:28.358Z,7.60
2022-10-19T17:11:47.078Z,7.40
2022-10-19T17:14:15.230Z,7.40
2022-10-19T17:16:43.268Z,7.30
2022-10-19T17:19:12.370Z,7.20
2022-10-19T17:21:42.424Z,7.10
2022-10-19T17:24:20.087Z,7.10
2022-10-19T17:26:50.650Z,7.00
2022-10-19T17:29:19.190Z,6.90
2022-10-19T17:31:47.778Z,6.80
2022-10-19T17:34:16.282Z,6.70
2022-10-19T17:36:46.679Z,6.60
2022-10-19T17:39:17.928Z,6.50
2022-10-19T17:41:46.700Z,6.40
2022-10-19T17:44:15.558Z,6.40
2022-10-19T17:46:44.260Z,6.20
2022-10-19T17:49:13.178Z,6.10
2022-10-19T17:51:41.839Z,6.00
2022-10-19T17:54:14.435Z,5.90
2022-10-19T17:56:45.091Z,5.90
2022-10-19T17:59:13.863Z,5.80
2022-10-19T18:01:42.077Z,5.70
2022-10-19T18:04:10.195Z,5.60
2022-10-19T18:06:39.342Z,5.60
2022-10-19T18:09:09.310Z,5.50
2022-10-19T18:11:41.713Z,5.50
2022-10-19T18:14:11.485Z,5.40
2022-10-19T18:16:41.177Z,5.20
2022-10-19T18:19:10.776Z,5.20
2022-10-19T18:21:41.747Z,5.10
2022-10-19T18:24:15.130Z,5.00
2022-10-19T18:26:45.225Z,4.90
2022-10-19T18:29:16.989Z,4.80
2022-10-19T18:31:49.052Z,4.70
2022-10-19T18:34:17.102Z,4.70
2022-10-19T18:36:45.465Z,4.60
2022-10-19T18:39:15.177Z,4.60
2022-10-19T18:41:44.797Z,4.50
2022-10-19T18:44:14.133Z,4.40
2022-10-19T18:46:42.526Z,4.30
2022-10-19T18:49:12.523Z,4.30
2022-10-19T18:51:40.691Z,4.30
2022-10-19T18:54:09.405Z,4.20
2022-10-19T18:56:37.492Z,4.20
2022-10-19T18:59:07.102Z,4.20
2022-10-19T19:01:35.310Z,4.10
2022-10-19T19:04:07.798Z,4.10
2022-10-19T19:06:36.588Z,4.10
2022-10-19T19:09:07.477Z,4.00
2022-10-19T19:11:38.154Z,4.00
2022-10-19T19:14:11.579Z,4.00
2022-10-19T19:16:40.630Z,4.00
2022-10-19T19:19:12.902Z,3.90
2022-10-19T19:21:43.908Z,3.90
2022-10-19T19:24:14.533Z,3.90
2022-10-19T19:26:44.894Z,3.90
2022-10-19T19:29:14.346Z,3.90
2022-10-19T19:31:42.417Z,3.90
2022-10-19T19:34:10.672Z,3.80
2022-10-19T19:39:09.469Z,3.80
2022-10-19T19:41:37.474Z,3.70
2022-10-19T19:44:05.721Z,3.70
2022-10-19T19:46:35.912Z,3.70
2022-10-19T19:49:05.889Z,3.70
2022-10-19T19:51:35.165Z,3.70
2022-10-19T19:54:03.537Z,3.70
2022-10-19T19:56:31.649Z,3.70
2022-10-19T19:59:03.383Z,3.70
2022-10-19T20:01:31.929Z,3.70
2022-10-19T20:06:31.185Z,3.70
2022-10-19T20:08:59.327Z,3.70
2022-10-19T20:11:29.350Z,3.70
2022-10-19T20:13:58.096Z,3.60
2022-10-19T20:16:29.409Z,3.60
2022-10-19T20:19:02.780Z,3.50
2022-10-19T20:21:31.829Z,3.50
2022-10-19T20:24:00.274Z,3.40
2022-10-19T20:26:28.682Z,3.40
2022-10-19T20:28:56.827Z,3.40
2022-10-19T20:31:25.819Z,3.40
2022-10-19T20:33:54.133Z,3.30
2022-10-19T20:36:25.436Z,3.30
2022-10-19T20:38:56.479Z,3.20
2022-10-19T20:41:27.275Z,3.20
2022-10-19T20:43:56.450Z,3.10
2022-10-19T20:46:26.319Z,3.10
2022-10-19T20:48:56.188Z,3.10
2022-10-19T20:51:30.834Z,3.10
2022-10-19T20:54:01.170Z,3.10
2022-10-19T20:56:36.500Z,3.10
2022-10-19T20:59:09.031Z,3.00
2022-10-19T21:02:01.373Z,3.00
2022-10-19T21:04:35.682Z,3.00
2022-10-19T21:07:18.901Z,3.00
2022-10-19T21:09:54.932Z,2.90
2022-10-19T21:12:38.910Z,2.80
2022-10-19T21:15:42.878Z,2.80
2022-10-19T21:18:29.330Z,2.70
2022-10-19T21:30:18.630Z,2.60
2022-10-19T21:39:13.762Z,2.60
2022-10-19T21:52:16.607Z,2.40
2022-10-19T21:56:11.361Z,2.30
2022-10-19T21:59:02.024Z,2.30
2022-10-19T22:01:47.927Z,2.20
2022-10-19T22:04:38.053Z,2.10
2022-10-19T22:07:45.763Z,2.10
2022-10-19T22:10:29.334Z,2.10
2022-10-19T22:16:46.267Z,2.10
2022-10-19T22:23:30.337Z,2.20
2022-10-19T22:26:46.924Z,2.20
2022-10-19T22:29:33.758Z,2.20
2022-10-19T22:32:24.401Z,2.20
2022-10-19T22:34:59.766Z,2.20
2022-10-19T22:37:37.258Z,2.20
2022-10-19T22:40:12.257Z,2.10
2022-10-19T22:43:14.955Z,2.10
2022-10-19T22:45:50.993Z,2.10
2022-10-19T22:48:21.729Z,2.00
2022-10-19T22:50:53.171Z,2.10
2022-10-19T22:53:24.351Z,2.10
2022-10-19T22:57:39.308Z,2.10
2022-10-19T23:00:37.050Z,2.20
2022-10-19T23:03:17.390Z,2.10
2022-10-19T23:06:32.782Z,2.00
2022-10-19T23:09:34.295Z,2.00
2022-10-19T23:12:10.006Z,2.00
2022-10-19T23:14:38.175Z,1.90
2022-10-19T23:17:07.580Z,1.80
2022-10-19T23:19:38.187Z,1.80
2022-10-19T23:22:06.469Z,1.90
2022-10-19T23:24:34.825Z,1.90
2022-10-19T23:27:03.061Z,1.90
2022-10-19T23:29:31.209Z,1.90
2022-10-19T23:31:59.528Z,1.90
2022-10-19T23:34:29.347Z,2.00
2022-10-19T23:37:02.562Z,2.00
2022-10-19T23:39:30.725Z,1.90
2022-10-19T23:41:58.905Z,2.00
2022-10-19T23:44:31.978Z,2.00
2022-10-19T23:47:00.119Z,2.00
2022-10-19T23:49:29.590Z,2.00
2022-10-19T23:51:57.772Z,2.00
2022-10-19T23:54:26.207Z,2.00
2022-10-19T23:56:59.371Z,2.10
2022-10-19T23:59:27.648Z,2.10
